createdAt,value
2018-02-18T00:00:25.166Z,-2.56
2018-02-18T00:01:25.576Z,-2.62
2018-02-18T00:02:25.075Z,-2.65
2018-02-18T00:03:25.078Z,-2.69
2018-02-18T00:04:24.982Z,-2.74
2018-02-18T00:05:25.115Z,-2.80
2018-02-18T00:06:26.188Z,-2.84
2018-02-18T00:07:24.943Z,-2.83
2018-02-18T00:08:24.573Z,-2.77
2018-02-18T00:09:25.172Z,-2.70
2018-02-18T00:10:25.671Z,-2.65
2018-02-18T00:11:24.951Z,-2.60
2018-02-18T00:12:24.928Z,-2.58
2018-02-18T00:13:25.007Z,-2.53
2018-02-18T00:14:25.068Z,-2.55
2018-02-18T00:15:25.329Z,-2.58
2018-02-18T00:16:24.431Z,-2.59
2018-02-18T00:17:24.842Z,-2.62
2018-02-18T00:18:24.954Z,-2.60
2018-02-18T00:19:25.350Z,-2.60
2018-02-18T00:20:24.134Z,-2.56
2018-02-18T00:21:25.524Z,-2.55
2018-02-18T00:23:08.230Z,-2.52
2018-02-18T00:24:30.626Z,-2.40
2018-02-18T00:25:30.257Z,-2.38
2018-02-18T00:26:30.928Z,-2.40
2018-02-18T00:27:30.525Z,-2.40
2018-02-18T00:28:31.261Z,-2.37
2018-02-18T00:29:30.984Z,-2.38
2018-02-18T00:30:30.936Z,-2.38
2018-02-18T00:31:30.299Z,-2.38
2018-02-18T00:32:30.915Z,-2.37
2018-02-18T00:33:31.459Z,-2.37
2018-02-18T00:34:52.384Z,-2.44
2018-02-18T00:35:53.487Z,-2.52
2018-02-18T00:36:53.297Z,-2.56
2018-02-18T00:37:53.056Z,-2.59
2018-02-18T00:38:52.430Z,-2.63
2018-02-18T00:39:53.375Z,-2.65
2018-02-18T00:40:52.609Z,-2.62
2018-02-18T00:41:52.960Z,-2.56
2018-02-18T00:42:52.564Z,-2.53
2018-02-18T00:43:53.417Z,-2.52
2018-02-18T00:44:52.896Z,-2.52
2018-02-18T00:45:53.814Z,-2.55
2018-02-18T00:46:53.600Z,-2.60
2018-02-18T00:47:52.983Z,-2.63
2018-02-18T00:48:52.628Z,-2.62
2018-02-18T00:49:54.592Z,-2.55
2018-02-18T00:50:53.353Z,-2.50
2018-02-18T00:51:53.267Z,-2.47
2018-02-18T00:53:17.930Z,-2.47
2018-02-18T00:54:18.133Z,-2.48
2018-02-18T00:55:20.729Z,-2.50
2018-02-18T00:56:18.259Z,-2.55
2018-02-18T00:57:17.983Z,-2.59
2018-02-18T00:58:17.818Z,-2.55
2018-02-18T00:59:18.388Z,-2.55
2018-02-18T01:00:17.791Z,-2.56
2018-02-18T01:01:17.868Z,-2.55
2018-02-18T01:02:18.249Z,-2.60
2018-02-18T01:03:18.010Z,-2.62
2018-02-18T01:04:17.845Z,-2.65
2018-02-18T01:05:18.753Z,-2.69
2018-02-18T01:06:18.639Z,-2.65
2018-02-18T01:07:18.451Z,-2.69
2018-02-18T01:08:18.343Z,-2.71
2018-02-18T01:09:17.749Z,-2.73
2018-02-18T01:10:18.720Z,-2.73
2018-02-18T01:11:18.589Z,-2.66
2018-02-18T01:12:18.449Z,-2.59
2018-02-18T01:13:17.962Z,-2.56
2018-02-18T01:14:17.516Z,-2.53
2018-02-18T01:15:19.689Z,-2.48
2018-02-18T01:16:18.663Z,-2.45
2018-02-18T01:17:18.206Z,-2.42
2018-02-18T01:18:17.898Z,-2.41
2018-02-18T01:19:17.480Z,-2.38
2018-02-18T01:20:17.996Z,-2.32
2018-02-18T01:21:17.862Z,-2.30
2018-02-18T01:22:17.764Z,-2.32
2018-02-18T01:23:40.351Z,-2.32
2018-02-18T01:24:41.272Z,-2.35
2018-02-18T01:25:40.148Z,-2.38
2018-02-18T01:26:40.954Z,-2.35
2018-02-18T01:27:40.467Z,-2.34
2018-02-18T01:28:40.824Z,-2.34
2018-02-18T01:29:40.876Z,-2.35
2018-02-18T01:30:40.724Z,-2.35
2018-02-18T01:31:40.676Z,-2.37
2018-02-18T01:32:40.308Z,-2.40
2018-02-18T01:33:40.858Z,-2.41
2018-02-18T01:34:40.140Z,-2.41
2018-02-18T01:35:41.219Z,-2.41
2018-02-18T01:36:40.816Z,-2.41
2018-02-18T01:37:40.291Z,-2.40
2018-02-18T01:38:41.237Z,-2.38
2018-02-18T01:39:41.127Z,-2.37
2018-02-18T01:40:41.083Z,-2.37
2018-02-18T01:41:40.623Z,-2.35
2018-02-18T01:42:40.682Z,-2.35
2018-02-18T01:43:40.385Z,-2.32
2018-02-18T01:44:40.345Z,-2.28
2018-02-18T01:45:39.958Z,-2.30
2018-02-18T01:46:40.962Z,-2.32
2018-02-18T01:47:40.507Z,-2.35
2018-02-18T01:48:40.155Z,-2.34
2018-02-18T01:49:41.010Z,-2.30
2018-02-18T01:50:40.669Z,-2.30
2018-02-18T01:51:40.266Z,-2.30
2018-02-18T01:52:41.071Z,-2.30
2018-02-18T01:53:40.932Z,-2.30
2018-02-18T01:54:40.886Z,-2.30
2018-02-18T01:55:40.878Z,-2.30
2018-02-18T01:56:40.643Z,-2.30
2018-02-18T01:57:40.062Z,-2.35
2018-02-18T01:58:40.304Z,-2.38
2018-02-18T01:59:40.136Z,-2.40
2018-02-18T02:00:41.201Z,-2.41
2018-02-18T02:01:40.755Z,-2.42
2018-02-18T02:02:40.610Z,-2.41
2018-02-18T02:03:40.446Z,-2.42
2018-02-18T02:04:40.420Z,-2.42
2018-02-18T02:05:39.912Z,-2.42
2018-02-18T02:06:40.654Z,-2.45
2018-02-18T02:07:40.780Z,-2.44
2018-02-18T02:08:40.748Z,-2.47
2018-02-18T02:09:40.429Z,-2.48
2018-02-18T02:10:40.236Z,-2.48
2018-02-18T02:11:40.231Z,-2.50
2018-02-18T02:12:40.904Z,-2.53
2018-02-18T02:13:40.660Z,-2.53
2018-02-18T02:14:40.125Z,-2.55
2018-02-18T02:15:40.965Z,-2.60
2018-02-18T02:16:40.813Z,-2.66
2018-02-18T02:17:40.625Z,-2.71
2018-02-18T02:18:40.597Z,-2.74
2018-02-18T02:19:40.348Z,-2.76
2018-02-18T02:20:41.104Z,-2.81
2018-02-18T02:21:40.586Z,-2.88
2018-02-18T02:22:39.947Z,-2.98
2018-02-18T02:23:40.770Z,-3.04
2018-02-18T02:24:40.182Z,-3.07
2018-02-18T02:25:41.145Z,-3.13
2018-02-18T02:26:41.045Z,-3.16
2018-02-18T02:27:40.825Z,-3.22
2018-02-18T02:28:40.369Z,-3.20
2018-02-18T02:29:40.055Z,-3.16
2018-02-18T02:30:40.573Z,-3.13
2018-02-18T02:31:40.563Z,-3.09
2018-02-18T02:32:40.381Z,-2.99
2018-02-18T02:33:40.193Z,-2.97
2018-02-18T02:35:02.187Z,-2.95
2018-02-18T02:36:03.131Z,-2.98
2018-02-18T02:37:02.840Z,-3.02
2018-02-18T02:38:02.359Z,-3.01
2018-02-18T02:39:03.233Z,-3.07
2018-02-18T02:40:02.707Z,-3.09
2018-02-18T02:41:03.048Z,-3.13
2018-02-18T02:42:02.575Z,-3.13
2018-02-18T02:43:24.862Z,-3.20
2018-02-18T02:44:26.002Z,-3.20
2018-02-18T02:45:25.965Z,-3.19
2018-02-18T02:46:25.465Z,-3.12
2018-02-18T02:47:46.512Z,-3.01
2018-02-18T02:48:46.891Z,-2.97
2018-02-18T02:49:46.701Z,-2.94
2018-02-18T02:50:46.322Z,-2.92
2018-02-18T02:51:47.016Z,-2.84
2018-02-18T02:52:46.446Z,-2.77
2018-02-18T02:53:47.276Z,-2.71
2018-02-18T02:54:46.874Z,-2.70
2018-02-18T02:55:46.644Z,-2.70
2018-02-18T02:56:46.837Z,-2.70
2018-02-18T02:57:46.684Z,-2.71
2018-02-18T02:58:47.389Z,-2.71
2018-02-18T02:59:46.731Z,-2.70
2018-02-18T03:00:46.590Z,-2.70
2018-02-18T03:01:46.461Z,-2.74
2018-02-18T03:02:46.810Z,-2.77
2018-02-18T03:03:46.195Z,-2.77
2018-02-18T03:04:46.794Z,-2.77
2018-02-18T03:05:46.208Z,-2.81
2018-02-18T03:06:46.644Z,-2.86
2018-02-18T03:08:08.505Z,-2.89
2018-02-18T03:09:09.012Z,-2.88
2018-02-18T03:10:08.456Z,-2.84
2018-02-18T03:11:09.035Z,-2.83
2018-02-18T03:12:09.709Z,-2.84
2018-02-18T03:13:09.126Z,-2.81
2018-02-18T03:14:08.900Z,-2.81
2018-02-18T03:15:09.481Z,-2.80
2018-02-18T03:16:09.110Z,-2.78
2018-02-18T03:17:08.846Z,-2.84
2018-02-18T03:18:09.551Z,-2.81
2018-02-18T03:19:09.501Z,-2.80
2018-02-18T03:20:09.308Z,-2.77
2018-02-18T03:21:08.979Z,-2.77
2018-02-18T03:22:31.637Z,-2.80
2018-02-18T03:23:32.191Z,-2.81
2018-02-18T03:24:31.639Z,-2.83
2018-02-18T03:25:32.385Z,-2.80
2018-02-18T03:26:32.248Z,-2.78
2018-02-18T03:27:31.666Z,-2.77
2018-02-18T03:28:32.022Z,-2.78
2018-02-18T03:29:31.881Z,-2.84
2018-02-18T03:30:53.310Z,-2.88
2018-02-18T03:31:53.686Z,-2.86
2018-02-18T03:32:54.512Z,-2.86
2018-02-18T03:33:54.221Z,-2.89
2018-02-18T03:34:54.090Z,-2.92
2018-02-18T03:35:55.131Z,-2.94
2018-02-18T03:36:53.727Z,-2.94
2018-02-18T03:37:54.360Z,-2.89
2018-02-18T03:38:54.261Z,-2.86
2018-02-18T03:39:53.705Z,-2.86
2018-02-18T03:40:54.667Z,-2.83
2018-02-18T03:41:54.349Z,-2.81
2018-02-18T03:42:53.946Z,-2.78
2018-02-18T03:43:53.472Z,-2.78
2018-02-18T03:44:54.428Z,-2.78
2018-02-18T03:45:53.704Z,-2.80
2018-02-18T03:46:54.552Z,-2.78
2018-02-18T03:47:53.728Z,-2.80
2018-02-18T03:48:54.507Z,-2.81
2018-02-18T03:49:54.419Z,-2.78
2018-02-18T03:50:54.619Z,-2.76
2018-02-18T03:51:54.127Z,-2.74
2018-02-18T03:52:53.606Z,-2.73
2018-02-18T03:53:53.917Z,-2.66
2018-02-18T03:54:53.484Z,-2.69
2018-02-18T03:55:54.123Z,-2.70
2018-02-18T03:56:53.608Z,-2.71
2018-02-18T03:57:54.502Z,-2.76
2018-02-18T03:58:54.317Z,-2.80
2018-02-18T03:59:53.972Z,-2.81
2018-02-18T04:00:53.882Z,-2.84
2018-02-18T04:01:53.478Z,-2.86
2018-02-18T04:02:54.214Z,-2.83
2018-02-18T04:03:53.836Z,-2.81
2018-02-18T04:04:54.384Z,-2.78
2018-02-18T04:05:54.168Z,-2.78
2018-02-18T04:06:54.089Z,-2.76
2018-02-18T04:07:53.780Z,-2.77
2018-02-18T04:08:54.175Z,-2.81
2018-02-18T04:09:53.945Z,-2.81
2018-02-18T04:10:53.695Z,-2.83
2018-02-18T04:11:54.522Z,-2.84
2018-02-18T04:12:56.071Z,-2.84
2018-02-18T04:13:53.844Z,-2.81
2018-02-18T04:14:54.450Z,-2.86
2018-02-18T04:16:15.223Z,-2.89
2018-02-18T04:17:15.904Z,-2.91
2018-02-18T04:18:15.372Z,-2.95
2018-02-18T04:19:15.995Z,-2.97
2018-02-18T04:20:15.539Z,-2.94
2018-02-18T04:21:15.820Z,-2.95
2018-02-18T04:22:15.608Z,-2.91
2018-02-18T04:23:16.389Z,-2.88
2018-02-18T04:24:16.093Z,-2.88
2018-02-18T04:25:15.305Z,-2.88
2018-02-18T04:26:15.966Z,-2.88
2018-02-18T04:27:15.358Z,-2.86
2018-02-18T04:28:15.665Z,-2.86
2018-02-18T04:29:15.351Z,-2.91
2018-02-18T04:30:15.797Z,-2.91
2018-02-18T04:31:15.557Z,-2.95
2018-02-18T04:32:15.355Z,-2.98
2018-02-18T04:33:16.187Z,-2.98
2018-02-18T04:34:15.643Z,-2.99
2018-02-18T04:35:58.048Z,-2.94
2018-02-18T04:36:58.628Z,-2.92
2018-02-18T04:37:58.535Z,-2.89
2018-02-18T04:38:57.918Z,-2.84
2018-02-18T04:39:58.600Z,-2.84
2018-02-18T04:40:58.358Z,-2.80
2018-02-18T04:41:57.820Z,-2.80
2018-02-18T04:42:58.273Z,-2.84
2018-02-18T04:43:57.776Z,-2.88
2018-02-18T04:45:19.878Z,-2.91
2018-02-18T04:46:20.144Z,-2.91
2018-02-18T04:47:20.625Z,-2.88
2018-02-18T04:48:20.536Z,-2.84
2018-02-18T04:49:20.470Z,-2.84
2018-02-18T04:50:20.031Z,-2.83
2018-02-18T04:51:20.426Z,-2.83
2018-02-18T04:52:20.300Z,-2.86
2018-02-18T04:53:21.134Z,-2.86
2018-02-18T04:54:20.652Z,-2.92
2018-02-18T04:55:20.239Z,-2.95
2018-02-18T04:56:20.675Z,-2.94
2018-02-18T04:57:20.569Z,-2.97
2018-02-18T04:58:20.109Z,-2.95
2018-02-18T04:59:20.924Z,-2.94
2018-02-18T05:00:20.345Z,-2.92
2018-02-18T05:01:42.078Z,-2.94
2018-02-18T05:02:42.712Z,-2.97
2018-02-18T05:03:42.478Z,-2.95
2018-02-18T05:04:42.850Z,-2.97
2018-02-18T05:05:42.819Z,-2.99
2018-02-18T05:06:42.153Z,-3.01
2018-02-18T05:07:42.515Z,-2.99
2018-02-18T05:08:43.202Z,-3.01
2018-02-18T05:09:42.400Z,-3.02
2018-02-18T05:10:42.816Z,-3.04
2018-02-18T05:11:42.551Z,-3.04
2018-02-18T05:12:43.345Z,-3.04
2018-02-18T05:13:42.763Z,-3.06
2018-02-18T05:14:42.453Z,-3.02
2018-02-18T05:15:43.168Z,-2.94
2018-02-18T05:16:42.916Z,-2.91
2018-02-18T05:17:42.312Z,-2.88
2018-02-18T05:18:42.659Z,-2.89
2018-02-18T05:19:42.202Z,-2.91
2018-02-18T05:20:42.992Z,-2.89
2018-02-18T05:21:42.660Z,-2.89
2018-02-18T05:22:42.063Z,-2.91
2018-02-18T05:23:42.875Z,-2.91
2018-02-18T05:24:42.220Z,-2.92
2018-02-18T05:26:03.942Z,-2.92
2018-02-18T05:27:04.488Z,-2.95
2018-02-18T05:28:05.243Z,-2.97
2018-02-18T05:29:04.866Z,-3.02
2018-02-18T05:30:04.314Z,-3.04
2018-02-18T05:31:04.905Z,-3.04
2018-02-18T05:32:04.574Z,-3.01
2018-02-18T05:33:04.089Z,-3.02
2018-02-18T05:34:04.796Z,-3.01
2018-02-18T05:35:04.379Z,-3.04
2018-02-18T05:36:04.666Z,-3.07
2018-02-18T05:37:04.461Z,-3.06
2018-02-18T05:38:05.014Z,-3.04
2018-02-18T05:39:04.798Z,-3.06
2018-02-18T05:40:04.304Z,-3.02
2018-02-18T05:41:05.027Z,-3.02
2018-02-18T05:42:04.668Z,-3.02
2018-02-18T05:43:04.332Z,-3.04
2018-02-18T05:44:05.039Z,-3.09
2018-02-18T05:45:04.738Z,-3.07
2018-02-18T05:46:04.228Z,-3.04
2018-02-18T05:47:04.640Z,-2.99
2018-02-18T05:48:25.416Z,-2.99
2018-02-18T05:49:47.367Z,-3.06
2018-02-18T05:50:48.221Z,-3.06
2018-02-18T05:51:47.651Z,-3.07
2018-02-18T05:53:08.854Z,-3.15
2018-02-18T05:54:09.428Z,-3.13
2018-02-18T05:55:08.769Z,-3.16
2018-02-18T05:56:09.554Z,-3.12
2018-02-18T05:57:09.018Z,-3.12
2018-02-18T05:58:09.478Z,-3.10
2018-02-18T05:59:08.746Z,-3.06
2018-02-18T06:00:09.339Z,-3.09
2018-02-18T06:01:10.185Z,-3.10
2018-02-18T06:02:10.072Z,-3.10
2018-02-18T06:03:09.818Z,-3.12
2018-02-18T06:04:09.532Z,-3.15
2018-02-18T06:05:08.965Z,-3.16
2018-02-18T06:06:09.420Z,-3.19
2018-02-18T06:07:30.402Z,-3.25
2018-02-18T06:08:31.065Z,-3.23
2018-02-18T06:09:30.455Z,-3.20
2018-02-18T06:10:30.921Z,-3.22
2018-02-18T06:11:31.565Z,-3.19
2018-02-18T06:12:31.233Z,-3.23
2018-02-18T06:13:30.692Z,-3.25
2018-02-18T06:14:31.568Z,-3.27
2018-02-18T06:15:31.445Z,-3.27
2018-02-18T06:16:31.030Z,-3.23
2018-02-18T06:17:30.761Z,-3.23
2018-02-18T06:18:31.583Z,-3.25
2018-02-18T06:19:31.137Z,-3.27
2018-02-18T06:20:52.112Z,-3.27
2018-02-18T06:21:52.402Z,-3.28
2018-02-18T06:22:52.231Z,-3.31
2018-02-18T06:23:53.037Z,-3.31
2018-02-18T06:24:52.558Z,-3.33
2018-02-18T06:25:52.263Z,-3.31
2018-02-18T06:26:52.190Z,-3.31
2018-02-18T06:27:52.619Z,-3.28
2018-02-18T06:28:52.573Z,-3.27
2018-02-18T06:29:52.081Z,-3.25
2018-02-18T06:30:52.636Z,-3.22
2018-02-18T06:31:52.031Z,-3.20
2018-02-18T06:33:14.070Z,-3.22
2018-02-18T06:34:36.068Z,-3.22
2018-02-18T06:35:36.508Z,-3.20
2018-02-18T06:36:35.826Z,-3.17
2018-02-18T06:37:36.238Z,-3.16
2018-02-18T06:38:36.957Z,-3.13
2018-02-18T06:39:36.526Z,-3.15
2018-02-18T06:40:36.346Z,-3.17
2018-02-18T06:41:36.067Z,-3.19
2018-02-18T06:42:36.833Z,-3.20
2018-02-18T06:43:36.427Z,-3.20
2018-02-18T06:44:35.828Z,-3.22
2018-02-18T06:45:36.633Z,-3.20
2018-02-18T06:46:36.021Z,-3.19
2018-02-18T06:47:36.559Z,-3.20
2018-02-18T06:48:36.519Z,-3.16
2018-02-18T06:49:36.416Z,-3.09
2018-02-18T06:50:35.690Z,-3.04
2018-02-18T06:51:57.700Z,-2.97
2018-02-18T06:52:58.121Z,-2.91
2018-02-18T06:53:58.866Z,-2.83
2018-02-18T06:54:58.215Z,-2.74
2018-02-18T06:56:20.500Z,-2.62
2018-02-18T06:57:21.498Z,-2.52
2018-02-18T06:58:21.554Z,-2.38
2018-02-18T06:59:21.027Z,-2.30
2018-02-18T07:00:20.729Z,-2.23
2018-02-18T07:01:21.585Z,-2.16
2018-02-18T07:02:21.129Z,-2.10
2018-02-18T07:03:20.733Z,-2.04
2018-02-18T07:04:20.293Z,-2.05
2018-02-18T07:05:21.176Z,-2.04
2018-02-18T07:06:20.930Z,-2.02
2018-02-18T07:07:20.365Z,-2.01
2018-02-18T07:08:21.263Z,-1.94
2018-02-18T07:09:20.858Z,-1.89
2018-02-18T07:10:20.288Z,-1.87
2018-02-18T07:11:20.683Z,-1.87
2018-02-18T07:12:21.342Z,-1.92
2018-02-18T07:13:21.284Z,-1.92
2018-02-18T07:14:20.702Z,-1.84
2018-02-18T07:15:20.673Z,-1.72
2018-02-18T07:16:21.481Z,-1.65
2018-02-18T07:17:21.588Z,-1.62
2018-02-18T07:18:21.583Z,-1.51
2018-02-18T07:19:21.235Z,-1.43
2018-02-18T07:20:42.356Z,-1.30
2018-02-18T07:21:42.971Z,-1.26
2018-02-18T07:22:42.683Z,-1.26
2018-02-18T07:23:42.280Z,-1.20
2018-02-18T07:24:43.063Z,-1.17
2018-02-18T07:25:42.620Z,-1.17
2018-02-18T07:26:43.050Z,-1.11
2018-02-18T07:27:42.673Z,-0.93
2018-02-18T07:28:42.669Z,-0.64
2018-02-18T07:29:42.509Z,-0.32
2018-02-18T07:31:04.102Z,0.22
2018-02-18T07:32:04.750Z,0.58
2018-02-18T07:33:04.282Z,0.84
2018-02-18T07:34:03.667Z,0.88
2018-02-18T07:35:04.607Z,0.80
2018-02-18T07:36:04.190Z,0.70
2018-02-18T07:37:04.006Z,0.78
2018-02-18T07:38:04.765Z,0.73
2018-02-18T07:39:04.385Z,0.66
2018-02-18T07:40:03.756Z,0.80
2018-02-18T07:41:04.545Z,0.80
2018-02-18T07:42:25.678Z,0.73
2018-02-18T07:43:25.367Z,0.66
2018-02-18T07:44:26.266Z,0.80
2018-02-18T07:45:25.924Z,0.98
2018-02-18T07:46:25.788Z,1.12
2018-02-18T07:47:26.916Z,0.91
2018-02-18T07:48:25.476Z,0.62
2018-02-18T07:49:47.771Z,0.29
2018-02-18T07:50:48.632Z,0.08
2018-02-18T07:52:31.260Z,-0.11
2018-02-18T07:53:32.165Z,-0.18
2018-02-18T07:54:31.794Z,-0.25
2018-02-18T07:55:31.590Z,-0.31
2018-02-18T07:56:32.059Z,-0.35
2018-02-18T07:57:31.597Z,-0.34
2018-02-18T07:58:32.410Z,-0.34
2018-02-18T07:59:32.090Z,-0.34
2018-02-18T08:00:32.180Z,-0.32
2018-02-18T08:01:31.898Z,-0.31
2018-02-18T08:02:31.783Z,-0.28
2018-02-18T08:03:31.630Z,-0.29
2018-02-18T08:04:32.428Z,-0.26
2018-02-18T08:05:31.841Z,-0.18
2018-02-18T08:06:31.390Z,-0.18
2018-02-18T08:07:32.176Z,-0.20
2018-02-18T08:08:31.726Z,-0.23
2018-02-18T08:09:31.598Z,-0.21
2018-02-18T08:10:54.072Z,-0.20
2018-02-18T08:11:54.487Z,-0.13
2018-02-18T08:13:16.967Z,-0.08
2018-02-18T08:14:17.911Z,-0.10
2018-02-18T08:15:17.404Z,-0.10
2018-02-18T08:16:38.493Z,-0.10
2018-02-18T08:17:39.047Z,-0.13
2018-02-18T08:18:39.371Z,-0.14
2018-02-18T08:19:39.408Z,-0.10
2018-02-18T08:20:39.065Z,-0.07
2018-02-18T08:21:39.704Z,-0.07
2018-02-18T08:22:39.265Z,-0.02
2018-02-18T08:23:38.969Z,0.00
2018-02-18T08:24:39.047Z,0.04
2018-02-18T08:25:38.752Z,0.05
2018-02-18T08:26:39.681Z,0.11
2018-02-18T08:27:39.481Z,0.18
2018-02-18T08:28:39.243Z,0.22
2018-02-18T08:29:38.992Z,0.25
2018-02-18T08:30:39.117Z,0.29
2018-02-18T08:31:38.623Z,0.36
2018-02-18T08:32:39.484Z,0.43
2018-02-18T08:33:39.534Z,0.52
2018-02-18T08:34:39.388Z,0.63
2018-02-18T08:35:38.996Z,0.78
2018-02-18T08:36:38.584Z,0.91
2018-02-18T08:37:39.185Z,0.95
2018-02-18T08:38:39.077Z,0.88
2018-02-18T08:39:38.701Z,0.84
2018-02-18T08:40:39.782Z,0.81
2018-02-18T08:41:39.759Z,0.81
2018-02-18T08:42:40.500Z,0.81
2018-02-18T08:43:39.295Z,0.83
2018-02-18T08:44:39.080Z,0.81
2018-02-18T08:45:39.018Z,0.94
2018-02-18T08:46:38.688Z,1.01
2018-02-18T08:47:39.413Z,1.05
2018-02-18T08:48:38.859Z,1.05
2018-02-18T08:49:38.436Z,1.05
2018-02-18T08:50:38.989Z,1.12
2018-02-18T08:51:38.449Z,1.10
2018-02-18T08:52:39.007Z,1.05
2018-02-18T08:53:38.743Z,1.06
2018-02-18T08:54:39.776Z,1.10
2018-02-18T08:55:39.652Z,1.12
2018-02-18T08:56:39.480Z,1.14
2018-02-18T08:57:39.362Z,1.20
2018-02-18T08:58:38.811Z,1.24
2018-02-18T08:59:39.354Z,1.26
2018-02-18T09:00:39.144Z,1.31
2018-02-18T09:01:38.556Z,1.37
2018-02-18T09:02:40.125Z,1.49
2018-02-18T09:03:39.108Z,2.11
2018-02-18T09:04:38.657Z,3.08
2018-02-18T09:05:39.645Z,4.12
2018-02-18T09:06:39.593Z,5.15
2018-02-18T09:07:39.115Z,5.69
2018-02-18T09:08:38.810Z,5.82
2018-02-18T09:09:38.838Z,6.14
2018-02-18T09:10:38.563Z,6.66
2018-02-18T09:11:39.191Z,7.23
2018-02-18T09:12:38.922Z,7.77
2018-02-18T09:13:38.925Z,8.27
2018-02-18T09:14:39.521Z,8.88
2018-02-18T09:15:39.619Z,9.32
2018-02-18T09:16:39.728Z,9.58
2018-02-18T09:17:39.731Z,9.69
2018-02-18T09:18:39.464Z,9.50
2018-02-18T09:19:39.085Z,10.09
2018-02-18T09:20:38.890Z,10.53
2018-02-18T09:21:39.884Z,10.90
2018-02-18T09:22:39.093Z,10.61
2018-02-18T09:24:22.588Z,10.82
2018-02-18T09:25:22.181Z,10.68
2018-02-18T09:27:06.089Z,11.07
2018-02-18T09:28:06.294Z,10.97
2018-02-18T09:29:06.261Z,11.40
2018-02-18T09:30:06.022Z,11.78
2018-02-18T09:31:06.789Z,12.28
2018-02-18T09:32:06.997Z,12.36
2018-02-18T09:33:06.948Z,11.95
2018-02-18T09:34:06.227Z,12.04
2018-02-18T09:35:06.038Z,11.99
2018-02-18T09:36:06.611Z,12.07
2018-02-18T09:37:49.765Z,12.50
2018-02-18T09:38:50.529Z,12.64
2018-02-18T09:39:50.412Z,13.05
2018-02-18T09:40:51.230Z,13.41
2018-02-18T09:41:51.294Z,14.00
2018-02-18T09:42:50.389Z,14.32
2018-02-18T09:43:50.569Z,14.40
2018-02-18T09:44:50.212Z,14.14
2018-02-18T09:45:50.637Z,14.47
2018-02-18T09:46:50.530Z,13.59
2018-02-18T09:47:50.382Z,13.03
2018-02-18T09:48:50.344Z,12.90
2018-02-18T09:50:12.063Z,14.03
2018-02-18T09:51:13.153Z,14.96
2018-02-18T09:52:56.822Z,15.02
2018-02-18T09:53:56.706Z,14.81
2018-02-18T09:55:18.886Z,15.21
2018-02-18T09:56:19.520Z,15.24
2018-02-18T09:57:19.086Z,14.55
2018-02-18T09:58:19.740Z,14.55
2018-02-18T09:59:19.755Z,14.45
2018-02-18T10:00:20.019Z,14.68
2018-02-18T10:01:19.558Z,14.66
2018-02-18T10:02:19.420Z,14.92
2018-02-18T10:03:19.414Z,15.25
2018-02-18T10:04:19.566Z,15.94
2018-02-18T10:05:19.280Z,16.57
2018-02-18T10:06:19.741Z,16.89
2018-02-18T10:07:19.269Z,16.87
2018-02-18T10:08:19.893Z,16.09
2018-02-18T10:09:20.334Z,15.88
2018-02-18T10:10:20.029Z,15.52
2018-02-18T10:11:20.059Z,15.72
2018-02-18T10:12:19.911Z,16.17
2018-02-18T10:13:19.432Z,16.58
2018-02-18T10:14:19.534Z,16.91
2018-02-18T10:15:19.536Z,16.91
2018-02-18T10:16:41.422Z,17.06
2018-02-18T10:17:41.897Z,16.94
2018-02-18T10:18:41.939Z,17.68
2018-02-18T10:19:41.691Z,18.18
2018-02-18T10:20:41.675Z,18.44
2018-02-18T10:21:41.285Z,18.03
2018-02-18T10:22:42.885Z,17.02
2018-02-18T10:23:41.940Z,16.49
2018-02-18T10:24:41.967Z,16.83
2018-02-18T10:25:41.643Z,17.71
2018-02-18T10:26:41.466Z,18.29
2018-02-18T10:27:41.155Z,18.52
2018-02-18T10:28:41.998Z,18.40
2018-02-18T10:29:41.807Z,17.79
2018-02-18T10:30:42.554Z,18.01
2018-02-18T10:31:41.478Z,17.63
2018-02-18T10:32:41.482Z,17.95
2018-02-18T10:33:41.258Z,17.60
2018-02-18T10:34:42.028Z,17.63
2018-02-18T10:35:43.106Z,17.54
2018-02-18T10:36:44.034Z,17.16
2018-02-18T10:37:43.950Z,17.15
2018-02-18T10:38:43.962Z,17.39
2018-02-18T10:39:44.373Z,17.16
2018-02-18T10:40:42.958Z,17.26
2018-02-18T10:42:04.206Z,17.12
2018-02-18T10:43:04.752Z,17.26
2018-02-18T10:44:05.833Z,18.01
2018-02-18T10:45:03.718Z,18.31
2018-02-18T10:46:04.818Z,18.44
2018-02-18T10:47:05.302Z,18.53
2018-02-18T10:48:04.442Z,18.71
2018-02-18T10:49:04.306Z,18.89
2018-02-18T10:50:04.680Z,19.07
2018-02-18T10:51:26.300Z,19.09
2018-02-18T10:52:27.821Z,19.34
2018-02-18T10:53:26.903Z,19.59
2018-02-18T10:54:27.284Z,18.59
2018-02-18T10:55:27.405Z,17.51
2018-02-18T10:56:26.364Z,17.82
2018-02-18T10:57:26.961Z,18.31
2018-02-18T10:58:26.949Z,18.63
2018-02-18T10:59:26.766Z,18.58
2018-02-18T11:00:27.026Z,18.62
2018-02-18T11:01:26.485Z,18.40
2018-02-18T11:02:48.164Z,18.31
2018-02-18T11:03:48.151Z,18.95
2018-02-18T11:04:48.145Z,19.36
2018-02-18T11:05:47.986Z,19.18
2018-02-18T11:06:48.995Z,18.77
2018-02-18T11:07:47.778Z,18.90
2018-02-18T11:08:48.605Z,18.88
2018-02-18T11:09:48.265Z,18.99
2018-02-18T11:10:48.189Z,18.70
2018-02-18T11:11:48.317Z,18.74
2018-02-18T11:12:48.449Z,18.33
2018-02-18T11:13:49.622Z,17.86
2018-02-18T11:14:48.832Z,18.63
2018-02-18T11:16:11.136Z,17.78
2018-02-18T11:17:12.352Z,18.41
2018-02-18T11:18:12.599Z,18.86
2018-02-18T11:19:11.458Z,18.19
2018-02-18T11:20:12.047Z,18.63
2018-02-18T11:21:13.499Z,19.19
2018-02-18T11:22:11.561Z,18.45
2018-02-18T11:23:11.831Z,18.43
2018-02-18T11:24:12.244Z,18.49
2018-02-18T11:25:11.197Z,18.78
2018-02-18T11:26:11.988Z,18.62
2018-02-18T11:27:12.193Z,18.95
2018-02-18T11:28:12.384Z,18.47
2018-02-18T11:29:11.479Z,18.63
2018-02-18T11:30:11.291Z,19.07
2018-02-18T11:31:11.946Z,18.59
2018-02-18T11:32:11.889Z,17.57
2018-02-18T11:33:12.222Z,16.93
2018-02-18T11:34:12.326Z,16.89
2018-02-18T11:35:12.286Z,17.48
2018-02-18T11:36:33.409Z,17.41
2018-02-18T11:37:34.335Z,17.20
2018-02-18T11:38:34.559Z,17.30
2018-02-18T11:39:34.697Z,17.72
2018-02-18T11:40:33.708Z,17.98
2018-02-18T11:41:54.843Z,18.52
2018-02-18T11:42:55.910Z,18.23
2018-02-18T11:43:55.443Z,18.44
2018-02-18T11:44:55.730Z,18.34
2018-02-18T11:45:55.529Z,19.16
2018-02-18T11:46:55.694Z,19.04
2018-02-18T11:47:55.997Z,18.28
2018-02-18T11:48:56.183Z,17.49
2018-02-18T11:49:56.529Z,16.91
2018-02-18T11:50:55.647Z,17.01
2018-02-18T11:51:55.265Z,17.34
2018-02-18T11:52:55.752Z,17.36
2018-02-18T11:53:55.414Z,17.56
2018-02-18T11:54:55.124Z,16.56
2018-02-18T11:55:55.856Z,16.39
2018-02-18T11:56:57.188Z,15.52
2018-02-18T11:57:55.735Z,14.48
2018-02-18T11:58:55.601Z,14.14
2018-02-18T11:59:57.112Z,13.65
2018-02-18T12:00:56.054Z,13.59
2018-02-18T12:01:55.067Z,13.42
2018-02-18T12:02:55.346Z,13.25
2018-02-18T12:03:54.941Z,13.20
2018-02-18T12:04:55.557Z,13.53
2018-02-18T12:05:56.093Z,14.07
2018-02-18T12:07:18.609Z,14.78
2018-02-18T12:08:19.022Z,15.37
2018-02-18T12:09:18.989Z,15.94
2018-02-18T12:10:18.810Z,16.16
2018-02-18T12:11:19.248Z,16.35
2018-02-18T12:12:19.528Z,16.54
2018-02-18T12:13:40.287Z,17.22
2018-02-18T12:14:40.947Z,17.80
2018-02-18T12:15:40.753Z,17.78
2018-02-18T12:16:40.600Z,18.08
2018-02-18T12:17:40.681Z,18.58
2018-02-18T12:18:41.158Z,18.95
2018-02-18T12:19:40.317Z,18.75
2018-02-18T12:20:40.334Z,17.59
2018-02-18T12:21:40.810Z,17.70
2018-02-18T12:22:40.972Z,17.39
2018-02-18T12:23:41.116Z,16.68
2018-02-18T12:24:40.782Z,17.12
2018-02-18T12:25:40.569Z,17.31
2018-02-18T12:26:40.363Z,17.29
2018-02-18T12:27:40.617Z,17.83
2018-02-18T12:28:40.284Z,17.82
2018-02-18T12:29:39.944Z,17.74
2018-02-18T12:30:40.641Z,17.95
2018-02-18T12:32:02.211Z,17.46
2018-02-18T12:33:02.978Z,17.38
2018-02-18T12:34:03.595Z,18.08
2018-02-18T12:35:02.322Z,18.66
2018-02-18T12:36:02.555Z,18.52
2018-02-18T12:37:02.953Z,17.98
2018-02-18T12:38:03.264Z,17.59
2018-02-18T12:39:02.057Z,17.44
2018-02-18T12:40:46.105Z,16.09
2018-02-18T12:41:46.989Z,15.61
2018-02-18T12:42:47.828Z,15.55
2018-02-18T12:43:46.835Z,15.58
2018-02-18T12:44:47.598Z,14.82
2018-02-18T12:45:46.939Z,14.29
2018-02-18T12:46:46.850Z,13.90
2018-02-18T12:48:08.962Z,13.75
2018-02-18T12:49:09.527Z,13.52
2018-02-18T12:50:09.450Z,13.52
2018-02-18T12:51:09.075Z,13.52
2018-02-18T12:52:11.454Z,13.67
2018-02-18T12:53:09.613Z,13.70
2018-02-18T12:54:52.945Z,13.62
2018-02-18T12:55:54.282Z,13.49
2018-02-18T12:56:53.267Z,13.23
2018-02-18T12:57:54.620Z,12.68
2018-02-18T12:58:53.815Z,12.07
2018-02-18T12:59:53.874Z,11.73
2018-02-18T13:00:53.998Z,11.54
2018-02-18T13:02:16.743Z,11.19
2018-02-18T13:03:16.619Z,10.97
2018-02-18T13:04:16.581Z,11.10
2018-02-18T13:05:39.263Z,11.40
2018-02-18T13:06:43.162Z,11.84
2018-02-18T13:07:45.604Z,12.29
2018-02-18T13:08:41.464Z,12.68
2018-02-18T13:09:40.662Z,12.67
2018-02-18T13:10:39.979Z,12.21
2018-02-18T13:11:39.680Z,11.73
2018-02-18T13:12:39.824Z,11.32
2018-02-18T13:13:39.501Z,10.96
2018-02-18T13:14:39.756Z,10.86
2018-02-18T13:15:40.177Z,10.76
2018-02-18T13:16:39.250Z,10.63
2018-02-18T13:18:00.443Z,10.46
2018-02-18T13:19:01.732Z,10.59